sensor_id;sensor_type;location;lat;lon;timestamp;P1;durP1;ratioP1;P2;durP2;ratioP2
32292;SDS011;43233;48.608;8.838;2023-03-01T00:00:38;23.87;;;14.43;;
32292;SDS011;43233;48.608;8.838;2023-03-01T00:03:03;22.63;;;14.50;;
32292;SDS011;43233;48.608;8.838;2023-03-01T00:05:29;22.20;;;13.60;;
32292;SDS011;43233;48.608;8.838;2023-03-01T00:07:55;21.40;;;13.50;;
32292;SDS011;43233;48.608;8.838;2023-03-01T00:10:20;21.83;;;13.77;;
32292;SDS011;43233;48.608;8.838;2023-03-01T00:12:46;20.27;;;13.10;;
32292;SDS011;43233;48.608;8.838;2023-03-01T00:15:12;21.90;;;13.60;;
32292;SDS011;43233;48.608;8.838;2023-03-01T00:17:37;27.37;;;15.87;;
32292;SDS011;43233;48.608;8.838;2023-03-01T00:20:03;26.70;;;15.63;;
32292;SDS011;43233;48.608;8.838;2023-03-01T00:22:33;23.67;;;15.00;;
32292;SDS011;43233;48.608;8.838;2023-03-01T00:24:58;23.23;;;14.50;;
32292;SDS011;43233;48.608;8.838;2023-03-01T00:27:24;26.27;;;15.20;;
32292;SDS011;43233;48.608;8.838;2023-03-01T00:29:50;22.00;;;14.63;;
32292;SDS011;43233;48.608;8.838;2023-03-01T00:32:17;37.33;;;14.17;;
32292;SDS011;43233;48.608;8.838;2023-03-01T00:34:42;19.93;;;14.00;;
32292;SDS011;43233;48.608;8.838;2023-03-01T00:37:22;23.07;;;13.97;;
32292;SDS011;43233;48.608;8.838;2023-03-01T00:39:48;20.00;;;12.17;;
32292;SDS011;43233;48.608;8.838;2023-03-01T00:42:14;24.73;;;14.67;;
32292;SDS011;43233;48.608;8.838;2023-03-01T00:44:40;21.30;;;15.20;;
32292;SDS011;43233;48.608;8.838;2023-03-01T00:47:05;22.70;;;13.30;;
32292;SDS011;43233;48.608;8.838;2023-03-01T00:49:31;22.77;;;14.00;;
32292;SDS011;43233;48.608;8.838;2023-03-01T00:51:57;20.67;;;13.40;;
32292;SDS011;43233;48.608;8.838;2023-03-01T00:54:22;24.80;;;15.33;;
32292;SDS011;43233;48.608;8.838;2023-03-01T00:56:48;22.10;;;13.40;;
32292;SDS011;43233;48.608;8.838;2023-03-01T00:59:14;25.57;;;15.57;;
32292;SDS011;43233;48.608;8.838;2023-03-01T01:01:39;21.93;;;14.03;;
32292;SDS011;43233;48.608;8.838;2023-03-01T01:04:06;28.40;;;15.33;;
32292;SDS011;43233;48.608;8.838;2023-03-01T01:06:35;18.47;;;13.53;;
32292;SDS011;43233;48.608;8.838;2023-03-01T01:09:04;24.87;;;15.20;;
32292;SDS011;43233;48.608;8.838;2023-03-01T01:11:32;21.10;;;13.70;;
32292;SDS011;43233;48.608;8.838;2023-03-01T01:14:00;21.40;;;13.93;;
32292;SDS011;43233;48.608;8.838;2023-03-01T01:16:26;24.67;;;14.20;;
32292;SDS011;43233;48.608;8.838;2023-03-01T01:18:52;23.77;;;14.23;;
32292;SDS011;43233;48.608;8.838;2023-03-01T01:21:20;25.60;;;14.83;;
32292;SDS011;43233;48.608;8.838;2023-03-01T01:23:46;27.23;;;15.03;;
32292;SDS011;43233;48.608;8.838;2023-03-01T01:26:14;25.90;;;14.13;;
32292;SDS011;43233;48.608;8.838;2023-03-01T01:28:43;20.37;;;13.27;;
32292;SDS011;43233;48.608;8.838;2023-03-01T01:31:08;24.63;;;14.97;;
32292;SDS011;43233;48.608;8.838;2023-03-01T01:33:34;25.33;;;15.73;;
32292;SDS011;43233;48.608;8.838;2023-03-01T01:36:00;22.57;;;14.57;;
32292;SDS011;43233;48.608;8.838;2023-03-01T01:38:25;22.73;;;14.83;;
32292;SDS011;43233;48.608;8.838;2023-03-01T01:40:51;26.23;;;15.10;;
32292;SDS011;43233;48.608;8.838;2023-03-01T01:45:57;28.10;;;15.60;;
32292;SDS011;43233;48.608;8.838;2023-03-01T01:48:43;23.80;;;14.60;;
32292;SDS011;43233;48.608;8.838;2023-03-01T01:51:14;26.50;;;15.63;;
32292;SDS011;43233;48.608;8.838;2023-03-01T01:53:44;23.70;;;13.50;;
32292;SDS011;43233;48.608;8.838;2023-03-01T01:56:12;25.03;;;15.10;;
32292;SDS011;43233;48.608;8.838;2023-03-01T01:58:41;22.37;;;14.43;;
32292;SDS011;43233;48.608;8.838;2023-03-01T02:01:08;21.73;;;14.30;;
32292;SDS011;43233;48.608;8.838;2023-03-01T02:03:34;23.27;;;14.43;;
32292;SDS011;43233;48.608;8.838;2023-03-01T02:06:10;23.30;;;14.87;;
32292;SDS011;43233;48.608;8.838;2023-03-01T02:08:37;24.50;;;14.77;;
32292;SDS011;43233;48.608;8.838;2023-03-01T02:11:06;27.73;;;13.97;;
32292;SDS011;43233;48.608;8.838;2023-03-01T02:13:33;23.87;;;14.90;;
32292;SDS011;43233;48.608;8.838;2023-03-01T02:16:04;22.57;;;13.93;;
32292;SDS011;43233;48.608;8.838;2023-03-01T02:18:32;27.13;;;15.03;;
32292;SDS011;43233;48.608;8.838;2023-03-01T02:23:45;24.83;;;14.27;;
32292;SDS011;43233;48.608;8.838;2023-03-01T02:26:19;24.33;;;15.20;;
32292;SDS011;43233;48.608;8.838;2023-03-01T02:28:46;26.17;;;15.97;;
32292;SDS011;43233;48.608;8.838;2023-03-01T02:31:16;19.80;;;14.30;;
32292;SDS011;43233;48.608;8.838;2023-03-01T02:34:02;23.20;;;14.90;;
32292;SDS011;43233;48.608;8.838;2023-03-01T02:36:31;24.60;;;14.50;;
32292;SDS011;43233;48.608;8.838;2023-03-01T02:39:02;20.70;;;13.20;;
32292;SDS011;43233;48.608;8.838;2023-03-01T02:41:32;23.10;;;14.97;;
32292;SDS011;43233;48.608;8.838;2023-03-01T02:44:02;22.33;;;14.03;;
32292;SDS011;43233;48.608;8.838;2023-03-01T02:46:28;32.23;;;13.90;;
32292;SDS011;43233;48.608;8.838;2023-03-01T02:48:55;20.87;;;12.60;;
32292;SDS011;43233;48.608;8.838;2023-03-01T02:56:39;20.73;;;13.20;;
32292;SDS011;43233;48.608;8.838;2023-03-01T02:59:05;24.83;;;14.60;;
32292;SDS011;43233;48.608;8.838;2023-03-01T03:01:32;28.07;;;15.70;;
32292;SDS011;43233;48.608;8.838;2023-03-01T03:04:04;25.70;;;15.40;;
32292;SDS011;43233;48.608;8.838;2023-03-01T03:06:31;24.73;;;14.97;;
32292;SDS011;43233;48.608;8.838;2023-03-01T03:08:57;23.00;;;13.17;;
32292;SDS011;43233;48.608;8.838;2023-03-01T03:11:23;22.90;;;15.57;;
32292;SDS011;43233;48.608;8.838;2023-03-01T03:13:49;26.10;;;15.33;;
32292;SDS011;43233;48.608;8.838;2023-03-01T03:16:15;20.50;;;13.00;;
32292;SDS011;43233;48.608;8.838;2023-03-01T03:18:40;22.67;;;14.43;;
32292;SDS011;43233;48.608;8.838;2023-03-01T03:21:10;25.30;;;14.93;;
32292;SDS011;43233;48.608;8.838;2023-03-01T03:23:36;27.67;;;14.23;;
32292;SDS011;43233;48.608;8.838;2023-03-01T03:26:03;21.47;;;14.10;;
32292;SDS011;43233;48.608;8.838;2023-03-01T03:28:30;20.73;;;14.10;;
32292;SDS011;43233;48.608;8.838;2023-03-01T03:31:00;24.00;;;15.73;;
32292;SDS011;43233;48.608;8.838;2023-03-01T03:33:29;25.60;;;16.33;;
32292;SDS011;43233;48.608;8.838;2023-03-01T03:35:55;24.07;;;13.93;;
32292;SDS011;43233;48.608;8.838;2023-03-01T03:38:21;22.87;;;14.30;;
32292;SDS011;43233;48.608;8.838;2023-03-01T03:43:18;23.43;;;14.90;;
32292;SDS011;43233;48.608;8.838;2023-03-01T03:45:46;24.90;;;15.07;;
32292;SDS011;43233;48.608;8.838;2023-03-01T03:48:13;28.83;;;16.57;;
32292;SDS011;43233;48.608;8.838;2023-03-01T03:50:39;23.10;;;15.40;;
32292;SDS011;43233;48.608;8.838;2023-03-01T03:53:07;23.93;;;15.47;;
32292;SDS011;43233;48.608;8.838;2023-03-01T03:55:35;19.57;;;14.07;;
32292;SDS011;43233;48.608;8.838;2023-03-01T03:58:04;21.47;;;14.73;;
32292;SDS011;43233;48.608;8.838;2023-03-01T04:00:32;25.37;;;15.77;;
32292;SDS011;43233;48.608;8.838;2023-03-01T04:03:06;23.07;;;13.80;;
32292;SDS011;43233;48.608;8.838;2023-03-01T04:05:32;24.20;;;14.97;;
32292;SDS011;43233;48.608;8.838;2023-03-01T04:07:59;25.50;;;16.33;;
32292;SDS011;43233;48.608;8.838;2023-03-01T04:10:32;28.93;;;17.40;;
32292;SDS011;43233;48.608;8.838;2023-03-01T04:13:01;28.07;;;16.43;;
32292;SDS011;43233;48.608;8.838;2023-03-01T04:15:27;25.20;;;14.60;;
32292;SDS011;43233;48.608;8.838;2023-03-01T04:17:54;27.97;;;16.60;;
32292;SDS011;43233;48.608;8.838;2023-03-01T04:20:24;24.67;;;15.70;;
32292;SDS011;43233;48.608;8.838;2023-03-01T04:23:03;29.23;;;17.37;;
32292;SDS011;43233;48.608;8.838;2023-03-01T04:25:39;24.10;;;15.37;;
32292;SDS011;43233;48.608;8.838;2023-03-01T04:28:05;26.57;;;15.57;;
32292;SDS011;43233;48.608;8.838;2023-03-01T04:30:32;25.00;;;15.40;;
32292;SDS011;43233;48.608;8.838;2023-03-01T04:33:01;28.53;;;17.03;;
32292;SDS011;43233;48.608;8.838;2023-03-01T04:35:28;26.73;;;16.83;;
32292;SDS011;43233;48.608;8.838;2023-03-01T04:37:54;23.23;;;16.13;;
32292;SDS011;43233;48.608;8.838;2023-03-01T04:40:20;24.90;;;16.07;;
32292;SDS011;43233;48.608;8.838;2023-03-01T04:42:46;28.27;;;16.47;;
32292;SDS011;43233;48.608;8.838;2023-03-01T04:45:12;27.07;;;16.57;;
32292;SDS011;43233;48.608;8.838;2023-03-01T04:47:46;28.23;;;16.30;;
32292;SDS011;43233;48.608;8.838;2023-03-01T04:50:13;24.97;;;15.37;;
32292;SDS011;43233;48.608;8.838;2023-03-01T04:52:41;26.27;;;16.30;;
32292;SDS011;43233;48.608;8.838;2023-03-01T04:55:09;32.70;;;18.80;;
32292;SDS011;43233;48.608;8.838;2023-03-01T04:57:35;24.80;;;15.33;;
32292;SDS011;43233;48.608;8.838;2023-03-01T05:00:01;23.23;;;15.50;;
32292;SDS011;43233;48.608;8.838;2023-03-01T05:02:44;28.63;;;16.63;;
32292;SDS011;43233;48.608;8.838;2023-03-01T05:05:11;25.30;;;16.03;;
32292;SDS011;43233;48.608;8.838;2023-03-01T05:07:38;28.40;;;16.97;;
32292;SDS011;43233;48.608;8.838;2023-03-01T05:10:03;24.60;;;15.43;;
32292;SDS011;43233;48.608;8.838;2023-03-01T05:12:29;28.93;;;17.03;;
32292;SDS011;43233;48.608;8.838;2023-03-01T05:14:55;23.63;;;16.47;;
32292;SDS011;43233;48.608;8.838;2023-03-01T05:17:20;21.67;;;15.50;;
32292;SDS011;43233;48.608;8.838;2023-03-01T05:19:46;28.20;;;17.33;;
32292;SDS011;43233;48.608;8.838;2023-03-01T05:22:11;24.13;;;15.97;;
32292;SDS011;43233;48.608;8.838;2023-03-01T05:24:37;27.40;;;16.43;;
32292;SDS011;43233;48.608;8.838;2023-03-01T05:27:03;24.83;;;15.70;;
32292;SDS011;43233;48.608;8.838;2023-03-01T05:29:30;26.63;;;14.73;;
32292;SDS011;43233;48.608;8.838;2023-03-01T05:32:00;29.10;;;16.60;;
32292;SDS011;43233;48.608;8.838;2023-03-01T05:34:31;30.93;;;16.70;;
32292;SDS011;43233;48.608;8.838;2023-03-01T05:36:58;25.60;;;15.87;;
32292;SDS011;43233;48.608;8.838;2023-03-01T05:39:25;25.20;;;16.50;;
32292;SDS011;43233;48.608;8.838;2023-03-01T05:41:53;23.77;;;15.73;;
32292;SDS011;43233;48.608;8.838;2023-03-01T05:44:20;23.97;;;15.90;;
32292;SDS011;43233;48.608;8.838;2023-03-01T05:46:46;22.93;;;15.33;;
32292;SDS011;43233;48.608;8.838;2023-03-01T05:49:12;26.30;;;16.50;;
32292;SDS011;43233;48.608;8.838;2023-03-01T05:51:39;29.40;;;16.47;;
32292;SDS011;43233;48.608;8.838;2023-03-01T05:54:05;25.50;;;16.50;;
32292;SDS011;43233;48.608;8.838;2023-03-01T05:56:32;25.30;;;16.30;;
32292;SDS011;43233;48.608;8.838;2023-03-01T05:58:59;29.73;;;16.93;;
32292;SDS011;43233;48.608;8.838;2023-03-01T06:01:25;26.80;;;16.73;;
32292;SDS011;43233;48.608;8.838;2023-03-01T06:03:50;29.80;;;18.30;;
32292;SDS011;43233;48.608;8.838;2023-03-01T06:06:16;31.40;;;17.00;;
32292;SDS011;43233;48.608;8.838;2023-03-01T06:08:41;34.57;;;17.40;;
32292;SDS011;43233;48.608;8.838;2023-03-01T06:11:07;26.97;;;17.07;;
32292;SDS011;43233;48.608;8.838;2023-03-01T06:13:33;25.10;;;16.60;;
32292;SDS011;43233;48.608;8.838;2023-03-01T06:15:58;30.02;;;17.83;;
32292;SDS011;43233;48.608;8.838;2023-03-01T06:18:24;29.20;;;16.83;;
32292;SDS011;43233;48.608;8.838;2023-03-01T06:20:55;27.83;;;18.33;;
32292;SDS011;43233;48.608;8.838;2023-03-01T06:23:21;27.47;;;16.70;;
32292;SDS011;43233;48.608;8.838;2023-03-01T06:25:48;31.17;;;18.10;;
32292;SDS011;43233;48.608;8.838;2023-03-01T06:28:14;26.40;;;17.07;;
32292;SDS011;43233;48.608;8.838;2023-03-01T06:30:39;29.97;;;18.03;;
32292;SDS011;43233;48.608;8.838;2023-03-01T06:33:05;30.23;;;17.20;;
32292;SDS011;43233;48.608;8.838;2023-03-01T06:35:31;30.00;;;17.93;;
32292;SDS011;43233;48.608;8.838;2023-03-01T06:37:57;32.63;;;19.13;;
32292;SDS011;43233;48.608;8.838;2023-03-01T06:40:25;33.90;;;19.20;;
32292;SDS011;43233;48.608;8.838;2023-03-01T06:42:51;32.50;;;18.73;;
32292;SDS011;43233;48.608;8.838;2023-03-01T06:45:17;34.80;;;19.97;;
32292;SDS011;43233;48.608;8.838;2023-03-01T06:47:44;28.27;;;17.50;;
32292;SDS011;43233;48.608;8.838;2023-03-01T06:50:10;22.70;;;16.03;;
32292;SDS011;43233;48.608;8.838;2023-03-01T06:52:36;31.50;;;16.23;;
32292;SDS011;43233;48.608;8.838;2023-03-01T06:55:02;25.97;;;16.43;;
32292;SDS011;43233;48.608;8.838;2023-03-01T06:57:29;29.70;;;17.47;;
32292;SDS011;43233;48.608;8.838;2023-03-01T06:59:54;32.10;;;19.20;;
32292;SDS011;43233;48.608;8.838;2023-03-01T07:02:20;36.00;;;18.27;;
32292;SDS011;43233;48.608;8.838;2023-03-01T07:04:47;35.13;;;18.90;;
32292;SDS011;43233;48.608;8.838;2023-03-01T07:07:14;31.60;;;17.60;;
32292;SDS011;43233;48.608;8.838;2023-03-01T07:09:40;31.80;;;19.60;;
32292;SDS011;43233;48.608;8.838;2023-03-01T07:12:06;25.67;;;17.43;;
32292;SDS011;43233;48.608;8.838;2023-03-01T07:14:32;28.80;;;16.87;;
32292;SDS011;43233;48.608;8.838;2023-03-01T07:16:58;26.77;;;18.03;;
32292;SDS011;43233;48.608;8.838;2023-03-01T07:19:24;29.23;;;18.40;;
32292;SDS011;43233;48.608;8.838;2023-03-01T07:21:49;31.63;;;17.37;;
32292;SDS011;43233;48.608;8.838;2023-03-01T07:24:15;32.50;;;17.60;;
32292;SDS011;43233;48.608;8.838;2023-03-01T07:26:41;31.00;;;18.13;;
32292;SDS011;43233;48.608;8.838;2023-03-01T07:29:07;29.90;;;17.30;;
32292;SDS011;43233;48.608;8.838;2023-03-01T07:31:34;26.43;;;14.50;;
32292;SDS011;43233;48.608;8.838;2023-03-01T07:34:00;34.73;;;18.57;;
32292;SDS011;43233;48.608;8.838;2023-03-01T07:36:26;31.30;;;17.57;;
32292;SDS011;43233;48.608;8.838;2023-03-01T07:38:52;31.30;;;17.97;;
32292;SDS011;43233;48.608;8.838;2023-03-01T07:41:17;27.97;;;17.20;;
32292;SDS011;43233;48.608;8.838;2023-03-01T07:43:43;26.57;;;16.20;;
32292;SDS011;43233;48.608;8.838;2023-03-01T07:46:09;31.90;;;17.60;;
32292;SDS011;43233;48.608;8.838;2023-03-01T07:48:34;31.20;;;18.00;;
32292;SDS011;43233;48.608;8.838;2023-03-01T07:51:00;30.40;;;17.30;;
32292;SDS011;43233;48.608;8.838;2023-03-01T07:53:27;34.70;;;18.50;;
32292;SDS011;43233;48.608;8.838;2023-03-01T07:56:03;39.17;;;18.30;;
32292;SDS011;43233;48.608;8.838;2023-03-01T07:58:31;28.30;;;15.97;;
32292;SDS011;43233;48.608;8.838;2023-03-01T08:01:03;36.00;;;18.47;;
32292;SDS011;43233;48.608;8.838;2023-03-01T08:03:29;31.53;;;17.20;;
32292;SDS011;43233;48.608;8.838;2023-03-01T08:05:55;27.27;;;17.27;;
32292;SDS011;43233;48.608;8.838;2023-03-01T08:08:21;28.50;;;17.90;;
32292;SDS011;43233;48.608;8.838;2023-03-01T08:10:46;34.90;;;19.20;;
32292;SDS011;43233;48.608;8.838;2023-03-01T08:13:12;32.90;;;18.00;;
32292;SDS011;43233;48.608;8.838;2023-03-01T08:15:38;29.17;;;18.53;;
32292;SDS011;43233;48.608;8.838;2023-03-01T08:18:03;29.50;;;19.03;;
32292;SDS011;43233;48.608;8.838;2023-03-01T08:20:29;26.57;;;16.37;;
32292;SDS011;43233;48.608;8.838;2023-03-01T08:22:54;26.37;;;17.63;;
32292;SDS011;43233;48.608;8.838;2023-03-01T08:25:22;28.20;;;17.13;;
32292;SDS011;43233;48.608;8.838;2023-03-01T08:27:48;34.47;;;18.63;;
32292;SDS011;43233;48.608;8.838;2023-03-01T08:30:13;38.07;;;17.97;;
32292;SDS011;43233;48.608;8.838;2023-03-01T08:32:39;26.40;;;15.83;;
32292;SDS011;43233;48.608;8.838;2023-03-01T08:35:05;32.80;;;18.30;;
32292;SDS011;43233;48.608;8.838;2023-03-01T08:37:31;28.73;;;17.20;;
32292;SDS011;43233;48.608;8.838;2023-03-01T08:39:57;31.00;;;17.60;;
32292;SDS011;43233;48.608;8.838;2023-03-01T08:42:24;30.40;;;16.67;;
32292;SDS011;43233;48.608;8.838;2023-03-01T08:44:49;27.13;;;18.10;;
32292;SDS011;43233;48.608;8.838;2023-03-01T08:47:15;29.10;;;17.83;;
32292;SDS011;43233;48.608;8.838;2023-03-01T08:49:40;28.00;;;17.03;;
32292;SDS011;43233;48.608;8.838;2023-03-01T08:52:06;31.97;;;18.07;;
32292;SDS011;43233;48.608;8.838;2023-03-01T08:54:32;28.07;;;17.50;;
32292;SDS011;43233;48.608;8.838;2023-03-01T08:56:57;23.77;;;16.33;;
32292;SDS011;43233;48.608;8.838;2023-03-01T08:59:25;25.90;;;17.37;;
32292;SDS011;43233;48.608;8.838;2023-03-01T09:01:51;24.57;;;16.60;;
32292;SDS011;43233;48.608;8.838;2023-03-01T09:04:18;30.50;;;18.10;;
32292;SDS011;43233;48.608;8.838;2023-03-01T09:06:43;34.00;;;17.93;;
32292;SDS011;43233;48.608;8.838;2023-03-01T09:09:13;29.60;;;17.60;;
32292;SDS011;43233;48.608;8.838;2023-03-01T09:11:40;26.93;;;17.63;;
32292;SDS011;43233;48.608;8.838;2023-03-01T09:14:08;29.80;;;17.70;;
32292;SDS011;43233;48.608;8.838;2023-03-01T09:16:34;31.47;;;16.93;;
32292;SDS011;43233;48.608;8.838;2023-03-01T09:19:01;23.37;;;16.30;;
32292;SDS011;43233;48.608;8.838;2023-03-01T09:21:28;27.07;;;17.40;;
32292;SDS011;43233;48.608;8.838;2023-03-01T09:23:55;29.37;;;15.97;;
32292;SDS011;43233;48.608;8.838;2023-03-01T09:26:22;25.10;;;16.53;;
32292;SDS011;43233;48.608;8.838;2023-03-01T09:28:49;29.70;;;16.70;;
32292;SDS011;43233;48.608;8.838;2023-03-01T09:31:17;26.27;;;17.83;;
32292;SDS011;43233;48.608;8.838;2023-03-01T09:33:45;24.93;;;16.97;;
32292;SDS011;43233;48.608;8.838;2023-03-01T09:36:13;27.70;;;16.90;;
32292;SDS011;43233;48.608;8.838;2023-03-01T09:38:40;25.73;;;16.43;;
32292;SDS011;43233;48.608;8.838;2023-03-01T09:41:10;25.27;;;17.23;;
32292;SDS011;43233;48.608;8.838;2023-03-01T09:46:18;27.23;;;16.83;;
32292;SDS011;43233;48.608;8.838;2023-03-01T09:51:26;26.93;;;17.57;;
32292;SDS011;43233;48.608;8.838;2023-03-01T09:53:56;28.53;;;17.27;;
32292;SDS011;43233;48.608;8.838;2023-03-01T09:56:32;26.77;;;16.30;;
32292;SDS011;43233;48.608;8.838;2023-03-01T10:09:42;22.90;;;15.70;;
32292;SDS011;43233;48.608;8.838;2023-03-01T10:12:30;26.27;;;17.33;;
32292;SDS011;43233;48.608;8.838;2023-03-01T10:15:02;32.70;;;18.20;;
32292;SDS011;43233;48.608;8.838;2023-03-01T10:17:48;19.97;;;14.73;;
32292;SDS011;43233;48.608;8.838;2023-03-01T10:20:33;25.33;;;15.80;;
32292;SDS011;43233;48.608;8.838;2023-03-01T10:23:23;28.23;;;16.17;;
32292;SDS011;43233;48.608;8.838;2023-03-01T10:29:05;24.57;;;16.90;;
32292;SDS011;43233;48.608;8.838;2023-03-01T10:34:15;26.60;;;16.30;;
32292;SDS011;43233;48.608;8.838;2023-03-01T10:36:41;23.20;;;15.10;;
32292;SDS011;43233;48.608;8.838;2023-03-01T10:39:15;30.77;;;15.93;;
32292;SDS011;43233;48.608;8.838;2023-03-01T10:41:54;25.43;;;16.67;;
32292;SDS011;43233;48.608;8.838;2023-03-01T10:47:24;26.67;;;17.03;;
32292;SDS011;43233;48.608;8.838;2023-03-01T10:52:30;33.83;;;17.60;;
32292;SDS011;43233;48.608;8.838;2023-03-01T10:55:27;21.67;;;15.87;;
32292;SDS011;43233;48.608;8.838;2023-03-01T10:58:17;24.70;;;15.53;;
32292;SDS011;43233;48.608;8.838;2023-03-01T11:00:49;24.70;;;15.13;;
32292;SDS011;43233;48.608;8.838;2023-03-01T11:03:19;26.00;;;15.70;;
32292;SDS011;43233;48.608;8.838;2023-03-01T11:05:51;27.37;;;16.77;;
32292;SDS011;43233;48.608;8.838;2023-03-01T11:14:00;27.27;;;16.40;;
32292;SDS011;43233;48.608;8.838;2023-03-01T11:21:35;29.00;;;17.90;;
32292;SDS011;43233;48.608;8.838;2023-03-01T11:24:11;26.50;;;15.87;;
32292;SDS011;43233;48.608;8.838;2023-03-01T11:26:42;26.53;;;17.00;;
32292;SDS011;43233;48.608;8.838;2023-03-01T11:29:26;24.73;;;16.63;;
32292;SDS011;43233;48.608;8.838;2023-03-01T11:31:56;23.63;;;15.97;;
32292;SDS011;43233;48.608;8.838;2023-03-01T11:34:36;20.00;;;14.60;;
32292;SDS011;43233;48.608;8.838;2023-03-01T11:37:21;25.13;;;15.13;;
32292;SDS011;43233;48.608;8.838;2023-03-01T11:40:26;23.00;;;14.80;;
32292;SDS011;43233;48.608;8.838;2023-03-01T11:48:38;23.17;;;15.90;;
32292;SDS011;43233;48.608;8.838;2023-03-01T11:51:19;23.93;;;14.50;;
32292;SDS011;43233;48.608;8.838;2023-03-01T11:56:55;21.77;;;14.20;;
32292;SDS011;43233;48.608;8.838;2023-03-01T12:16:05;23.33;;;17.10;;
32292;SDS011;43233;48.608;8.838;2023-03-01T12:24:31;21.33;;;15.53;;
32292;SDS011;43233;48.608;8.838;2023-03-01T12:29:52;21.10;;;15.03;;
32292;SDS011;43233;48.608;8.838;2023-03-01T12:32:35;20.90;;;15.17;;
32292;SDS011;43233;48.608;8.838;2023-03-01T12:40:41;26.13;;;14.87;;
32292;SDS011;43233;48.608;8.838;2023-03-01T12:46:10;21.70;;;15.40;;
32292;SDS011;43233;48.608;8.838;2023-03-01T12:51:39;26.70;;;14.97;;
32292;SDS011;43233;48.608;8.838;2023-03-01T12:54:20;20.70;;;14.10;;
32292;SDS011;43233;48.608;8.838;2023-03-01T12:56:55;21.57;;;13.00;;
32292;SDS011;43233;48.608;8.838;2023-03-01T12:59:33;17.43;;;12.57;;
32292;SDS011;43233;48.608;8.838;2023-03-01T13:04:52;15.60;;;11.90;;
32292;SDS011;43233;48.608;8.838;2023-03-01T13:07:22;16.50;;;13.20;;
32292;SDS011;43233;48.608;8.838;2023-03-01T13:18:33;16.73;;;13.13;;
32292;SDS011;43233;48.608;8.838;2023-03-01T13:33:47;13.10;;;11.37;;
32292;SDS011;43233;48.608;8.838;2023-03-01T13:41:52;15.77;;;12.20;;
32292;SDS011;43233;48.608;8.838;2023-03-01T13:47:15;16.13;;;11.97;;
32292;SDS011;43233;48.608;8.838;2023-03-01T13:49:43;15.80;;;12.30;;
32292;SDS011;43233;48.608;8.838;2023-03-01T13:55:16;15.20;;;12.20;;
32292;SDS011;43233;48.608;8.838;2023-03-01T13:57:47;14.00;;;10.20;;
32292;SDS011;43233;48.608;8.838;2023-03-01T14:06:06;14.63;;;11.50;;
32292;SDS011;43233;48.608;8.838;2023-03-01T14:08:36;12.37;;;10.73;;
32292;SDS011;43233;48.608;8.838;2023-03-01T14:21:36;15.60;;;11.57;;
32292;SDS011;43233;48.608;8.838;2023-03-01T14:24:03;15.30;;;12.10;;
32292;SDS011;43233;48.608;8.838;2023-03-01T14:26:29;22.10;;;12.63;;
32292;SDS011;43233;48.608;8.838;2023-03-01T14:28:56;14.23;;;12.10;;
32292;SDS011;43233;48.608;8.838;2023-03-01T14:33:57;16.93;;;12.67;;
32292;SDS011;43233;48.608;8.838;2023-03-01T14:36:27;19.03;;;12.80;;
32292;SDS011;43233;48.608;8.838;2023-03-01T14:38:54;22.67;;;16.30;;
32292;SDS011;43233;48.608;8.838;2023-03-01T14:41:21;23.70;;;17.00;;
32292;SDS011;43233;48.608;8.838;2023-03-01T14:46:30;20.97;;;15.50;;
32292;SDS011;43233;48.608;8.838;2023-03-01T14:49:07;19.43;;;12.83;;
32292;SDS011;43233;48.608;8.838;2023-03-01T14:51:39;15.63;;;13.53;;
32292;SDS011;43233;48.608;8.838;2023-03-01T14:54:19;16.27;;;13.33;;
32292;SDS011;43233;48.608;8.838;2023-03-01T14:56:50;19.40;;;13.73;;
32292;SDS011;43233;48.608;8.838;2023-03-01T14:59:19;16.93;;;14.23;;
32292;SDS011;43233;48.608;8.838;2023-03-01T15:01:47;23.40;;;15.87;;
32292;SDS011;43233;48.608;8.838;2023-03-01T15:04:13;18.40;;;13.60;;
32292;SDS011;43233;48.608;8.838;2023-03-01T15:06:39;17.80;;;12.60;;
32292;SDS011;43233;48.608;8.838;2023-03-01T15:09:06;15.27;;;12.57;;
32292;SDS011;43233;48.608;8.838;2023-03-01T15:11:36;17.57;;;12.70;;
32292;SDS011;43233;48.608;8.838;2023-03-01T15:14:25;20.43;;;14.13;;
32292;SDS011;43233;48.608;8.838;2023-03-01T15:16:52;16.80;;;12.57;;
32292;SDS011;43233;48.608;8.838;2023-03-01T15:19:17;14.77;;;13.13;;
32292;SDS011;43233;48.608;8.838;2023-03-01T15:21:44;21.47;;;14.13;;
32292;SDS011;43233;48.608;8.838;2023-03-01T15:26:46;17.93;;;14.60;;
32292;SDS011;43233;48.608;8.838;2023-03-01T15:29:19;21.47;;;12.57;;
32292;SDS011;43233;48.608;8.838;2023-03-01T15:32:01;16.37;;;11.80;;
32292;SDS011;43233;48.608;8.838;2023-03-01T15:34:35;18.33;;;12.63;;
32292;SDS011;43233;48.608;8.838;2023-03-01T15:37:03;16.07;;;12.80;;
32292;SDS011;43233;48.608;8.838;2023-03-01T15:39:52;18.87;;;13.67;;
32292;SDS011;43233;48.608;8.838;2023-03-01T15:45:10;19.20;;;14.70;;
32292;SDS011;43233;48.608;8.838;2023-03-01T15:52:58;23.13;;;14.70;;
32292;SDS011;43233;48.608;8.838;2023-03-01T15:55:29;21.50;;;14.90;;
32292;SDS011;43233;48.608;8.838;2023-03-01T15:58:02;19.77;;;14.80;;
32292;SDS011;43233;48.608;8.838;2023-03-01T16:00:38;23.80;;;15.07;;
32292;SDS011;43233;48.608;8.838;2023-03-01T16:03:04;20.07;;;14.60;;
32292;SDS011;43233;48.608;8.838;2023-03-01T16:05:31;19.53;;;14.93;;
32292;SDS011;43233;48.608;8.838;2023-03-01T16:07:59;19.13;;;15.40;;
32292;SDS011;43233;48.608;8.838;2023-03-01T16:10:25;17.47;;;13.97;;
32292;SDS011;43233;48.608;8.838;2023-03-01T16:12:52;27.77;;;14.67;;
32292;SDS011;43233;48.608;8.838;2023-03-01T16:15:22;22.70;;;15.80;;
32292;SDS011;43233;48.608;8.838;2023-03-01T16:17:50;20.93;;;16.30;;
32292;SDS011;43233;48.608;8.838;2023-03-01T16:20:17;20.03;;;14.20;;
32292;SDS011;43233;48.608;8.838;2023-03-01T16:22:43;20.70;;;15.50;;
32292;SDS011;43233;48.608;8.838;2023-03-01T16:25:10;23.53;;;16.50;;
32292;SDS011;43233;48.608;8.838;2023-03-01T16:27:37;20.37;;;15.90;;
32292;SDS011;43233;48.608;8.838;2023-03-01T16:30:03;21.30;;;15.50;;
32292;SDS011;43233;48.608;8.838;2023-03-01T16:32:30;27.93;;;16.30;;
32292;SDS011;43233;48.608;8.838;2023-03-01T16:34:56;26.57;;;17.60;;
32292;SDS011;43233;48.608;8.838;2023-03-01T16:37:21;22.77;;;16.30;;
32292;SDS011;43233;48.608;8.838;2023-03-01T16:39:47;22.57;;;16.03;;
32292;SDS011;43233;48.608;8.838;2023-03-01T16:42:15;25.50;;;16.97;;
32292;SDS011;43233;48.608;8.838;2023-03-01T16:44:43;24.23;;;16.23;;
32292;SDS011;43233;48.608;8.838;2023-03-01T16:47:08;25.47;;;17.17;;
32292;SDS011;43233;48.608;8.838;2023-03-01T16:49:34;21.67;;;15.60;;
32292;SDS011;43233;48.608;8.838;2023-03-01T16:52:00;25.77;;;15.70;;
32292;SDS011;43233;48.608;8.838;2023-03-01T16:54:26;28.10;;;18.10;;
32292;SDS011;43233;48.608;8.838;2023-03-01T16:56:52;31.40;;;19.03;;
32292;SDS011;43233;48.608;8.838;2023-03-01T16:59:18;34.20;;;17.60;;
32292;SDS011;43233;48.608;8.838;2023-03-01T17:01:44;30.83;;;16.33;;
32292;SDS011;43233;48.608;8.838;2023-03-01T17:04:11;31.20;;;18.07;;
32292;SDS011;43233;48.608;8.838;2023-03-01T17:06:37;33.33;;;19.20;;
32292;SDS011;43233;48.608;8.838;2023-03-01T17:09:02;37.67;;;21.27;;
32292;SDS011;43233;48.608;8.838;2023-03-01T17:11:28;35.10;;;20.23;;
32292;SDS011;43233;48.608;8.838;2023-03-01T17:13:54;33.33;;;19.53;;